createdAt,value
2023-06-30T00:01:55.278Z,11.90
2023-06-30T00:04:30.327Z,13.90
2023-06-30T00:07:01.421Z,12.80
2023-06-30T00:09:32.846Z,13.20
2023-06-30T00:12:04.142Z,12.80
2023-06-30T00:14:35.523Z,12.70
2023-06-30T00:17:07.137Z,12.00
2023-06-30T00:19:38.356Z,11.70
2023-06-30T00:22:10.132Z,12.00
2023-06-30T00:24:41.415Z,13.40
2023-06-30T00:27:12.933Z,13.10
2023-06-30T00:29:44.045Z,12.10
2023-06-30T00:32:15.687Z,11.60
2023-06-30T00:34:47.403Z,14.50
2023-06-30T00:37:19.940Z,12.90
2023-06-30T00:39:51.759Z,13.00
2023-06-30T00:42:23.406Z,12.20
2023-06-30T00:44:54.805Z,12.20
2023-06-30T00:47:26.269Z,12.10
2023-06-30T00:49:57.711Z,12.70
2023-06-30T00:52:29.043Z,13.10
2023-06-30T00:55:00.204Z,12.50
2023-06-30T00:57:31.568Z,13.50
2023-06-30T01:00:07.267Z,12.40
2023-06-30T01:02:46.250Z,12.50
2023-06-30T01:05:26.883Z,13.10
2023-06-30T01:08:06.883Z,13.90
2023-06-30T01:10:38.742Z,13.20
2023-06-30T01:13:11.852Z,12.30
2023-06-30T01:15:46.054Z,12.40
2023-06-30T01:18:21.225Z,13.10
2023-06-30T01:20:53.818Z,11.90
2023-06-30T01:23:34.336Z,11.90
2023-06-30T01:26:07.123Z,11.60
2023-06-30T01:28:40.893Z,12.90
2023-06-30T01:31:12.745Z,12.70
2023-06-30T01:33:45.644Z,12.10
2023-06-30T01:36:17.288Z,11.80
2023-06-30T01:38:48.649Z,13.00
2023-06-30T01:41:21.144Z,12.50
2023-06-30T01:43:53.901Z,12.50
2023-06-30T01:46:25.580Z,13.50
2023-06-30T01:48:57.747Z,13.70
2023-06-30T01:51:29.083Z,12.00
2023-06-30T01:54:00.362Z,12.40
2023-06-30T01:56:32.153Z,12.50
2023-06-30T01:59:03.421Z,16.30
2023-06-30T02:01:34.740Z,12.10
2023-06-30T02:04:06.682Z,13.30
2023-06-30T02:06:38.130Z,12.30
2023-06-30T02:09:09.850Z,13.10
2023-06-30T02:11:42.400Z,14.40
2023-06-30T02:14:19.216Z,12.40
2023-06-30T02:16:50.701Z,13.20
2023-06-30T02:19:25.047Z,12.40
2023-06-30T02:21:56.215Z,12.40
2023-06-30T02:24:27.447Z,12.40
2023-06-30T02:26:59.291Z,12.40
2023-06-30T02:29:32.292Z,12.80
2023-06-30T02:32:03.441Z,12.30
2023-06-30T02:34:34.412Z,12.10
2023-06-30T02:37:06.247Z,12.80
2023-06-30T02:39:38.381Z,11.00
2023-06-30T02:42:10.369Z,13.10
2023-06-30T02:44:41.325Z,13.60
2023-06-30T02:47:12.755Z,13.40
2023-06-30T02:49:44.140Z,13.60
2023-06-30T02:52:15.746Z,13.30
2023-06-30T02:54:47.408Z,13.10
2023-06-30T02:57:18.851Z,14.10
2023-06-30T02:59:50.045Z,12.50
2023-06-30T03:02:21.995Z,12.10
2023-06-30T03:04:57.285Z,12.20
2023-06-30T03:07:29.878Z,12.40
2023-06-30T03:10:02.204Z,13.80
2023-06-30T03:12:33.485Z,12.90
2023-06-30T03:15:05.548Z,13.30
2023-06-30T03:17:38.463Z,12.70
2023-06-30T03:20:13.675Z,11.90
2023-06-30T03:22:45.856Z,11.70
2023-06-30T03:25:17.251Z,13.90
2023-06-30T03:27:48.482Z,10.80
2023-06-30T03:30:19.798Z,11.80
2023-06-30T03:32:51.402Z,11.90
2023-06-30T03:35:22.425Z,13.40
2023-06-30T03:37:53.427Z,11.80
2023-06-30T03:40:24.608Z,11.30
2023-06-30T03:42:56.064Z,11.80
2023-06-30T03:45:28.544Z,11.90
2023-06-30T03:48:00.013Z,12.40
2023-06-30T03:50:31.285Z,11.90
2023-06-30T03:53:02.906Z,11.80
2023-06-30T03:55:34.193Z,11.10
2023-06-30T03:58:05.776Z,12.50
2023-06-30T04:00:37.283Z,11.00
2023-06-30T04:03:08.434Z,12.00
2023-06-30T04:05:40.055Z,10.60
2023-06-30T04:08:11.401Z,11.50
2023-06-30T04:10:42.762Z,11.50
2023-06-30T04:13:14.225Z,13.50
2023-06-30T04:15:45.652Z,12.10
2023-06-30T04:18:17.511Z,11.80
2023-06-30T04:20:48.959Z,11.20
2023-06-30T04:23:20.413Z,10.20
2023-06-30T04:25:51.550Z,11.30
2023-06-30T04:28:23.062Z,10.50
2023-06-30T04:30:54.346Z,11.40
2023-06-30T04:33:25.627Z,11.80
2023-06-30T04:35:56.983Z,11.10
2023-06-30T04:38:28.770Z,12.70
2023-06-30T04:41:00.616Z,10.20
2023-06-30T04:43:32.035Z,10.90
2023-06-30T04:46:03.107Z,9.70
2023-06-30T04:48:34.640Z,10.80
2023-06-30T04:51:05.705Z,12.50
2023-06-30T04:53:40.161Z,10.20
2023-06-30T04:56:11.942Z,9.40
2023-06-30T04:58:43.121Z,9.60
2023-06-30T05:01:14.370Z,9.90
2023-06-30T05:03:45.698Z,10.50
2023-06-30T05:06:17.190Z,11.10
2023-06-30T05:08:48.721Z,9.70
2023-06-30T05:11:19.928Z,10.50
2023-06-30T05:13:51.632Z,10.80
2023-06-30T05:16:22.971Z,9.10
2023-06-30T05:18:54.480Z,10.60
2023-06-30T05:21:25.978Z,10.90
2023-06-30T05:23:57.999Z,10.30
2023-06-30T05:26:29.383Z,10.30
2023-06-30T05:29:05.135Z,10.40
2023-06-30T05:31:36.946Z,9.90
2023-06-30T05:34:08.242Z,9.90
2023-06-30T05:36:39.746Z,9.60
2023-06-30T05:39:11.874Z,11.50
2023-06-30T05:41:43.382Z,8.90
2023-06-30T05:44:14.697Z,10.50
2023-06-30T05:46:45.906Z,10.30
2023-06-30T05:49:17.267Z,9.40
2023-06-30T05:51:48.938Z,10.10
2023-06-30T05:54:19.897Z,11.80
2023-06-30T05:56:51.586Z,9.80
2023-06-30T05:59:23.339Z,9.50
2023-06-30T06:01:54.576Z,9.40
2023-06-30T06:04:26.428Z,10.80
2023-06-30T06:06:58.630Z,9.20
2023-06-30T06:09:29.662Z,10.20
2023-06-30T06:12:01.148Z,10.30
2023-06-30T06:14:32.320Z,11.20
2023-06-30T06:17:03.601Z,9.40
2023-06-30T06:19:35.025Z,10.20
2023-06-30T06:22:06.987Z,8.90
2023-06-30T06:24:38.198Z,9.70
2023-06-30T06:27:10.409Z,9.50
2023-06-30T06:29:41.747Z,10.50
2023-06-30T06:32:13.447Z,9.10
2023-06-30T06:34:44.756Z,10.90
2023-06-30T06:37:17.727Z,11.40
2023-06-30T06:39:49.020Z,9.90
2023-06-30T06:42:20.096Z,11.00
2023-06-30T06:44:53.180Z,10.70
2023-06-30T06:47:51.089Z,10.90
2023-06-30T06:50:22.368Z,11.90
2023-06-30T06:52:53.422Z,13.30
2023-06-30T06:55:24.642Z,12.20
2023-06-30T06:57:56.996Z,14.10
2023-06-30T07:00:28.243Z,11.10
2023-06-30T07:02:59.953Z,12.30
2023-06-30T07:05:32.277Z,11.60
2023-06-30T07:08:06.124Z,18.60
2023-06-30T07:10:38.206Z,14.70
2023-06-30T07:13:10.163Z,19.80
2023-06-30T07:15:41.679Z,22.90
2023-06-30T07:18:13.009Z,19.80
2023-06-30T07:20:44.469Z,12.70
2023-06-30T07:23:16.091Z,15.10
2023-06-30T07:25:48.592Z,19.40
2023-06-30T07:28:20.115Z,17.80
2023-06-30T07:30:51.502Z,13.00
2023-06-30T07:33:22.605Z,15.40
2023-06-30T07:35:53.866Z,14.40
2023-06-30T07:38:25.644Z,14.90
2023-06-30T07:40:57.667Z,15.60
2023-06-30T07:43:31.704Z,15.50
2023-06-30T07:46:02.986Z,13.20
2023-06-30T07:48:34.423Z,14.00
2023-06-30T07:51:09.578Z,15.50
2023-06-30T07:53:41.252Z,15.70
2023-06-30T07:56:12.916Z,15.10
2023-06-30T07:58:44.177Z,14.00
2023-06-30T08:01:15.163Z,13.60
2023-06-30T08:03:46.367Z,15.10
2023-06-30T08:06:18.277Z,12.20
2023-06-30T08:08:49.565Z,13.80
2023-06-30T08:11:20.646Z,16.00
2023-06-30T08:13:52.187Z,15.90
2023-06-30T08:16:23.103Z,15.20
2023-06-30T08:18:54.854Z,21.90
2023-06-30T08:21:26.249Z,29.70
2023-06-30T08:23:57.502Z,33.60
2023-06-30T08:26:28.951Z,33.80
2023-06-30T08:29:00.142Z,27.60
2023-06-30T08:31:32.458Z,32.50
2023-06-30T08:34:03.973Z,31.40
2023-06-30T08:36:35.354Z,28.30
2023-06-30T08:39:06.513Z,28.10
2023-06-30T08:41:40.115Z,34.80
2023-06-30T08:44:12.504Z,35.60
2023-06-30T08:46:44.443Z,73.50
2023-06-30T08:49:15.923Z,41.40
2023-06-30T08:51:47.648Z,53.40
2023-06-30T08:54:19.246Z,37.80
2023-06-30T08:56:51.175Z,40.70
2023-06-30T08:59:22.752Z,25.90
2023-06-30T09:01:56.091Z,22.60
2023-06-30T09:04:27.798Z,18.80
2023-06-30T09:07:01.674Z,23.80
2023-06-30T09:09:39.758Z,20.70
2023-06-30T09:12:12.745Z,17.20
2023-06-30T09:14:46.906Z,19.50
2023-06-30T09:17:18.927Z,20.00
2023-06-30T09:19:50.814Z,17.00
2023-06-30T09:22:53.254Z,15.90
2023-06-30T09:25:41.895Z,15.00
2023-06-30T09:28:15.595Z,16.20
2023-06-30T09:30:50.945Z,15.10
2023-06-30T09:33:22.474Z,18.50
2023-06-30T09:35:54.255Z,17.80
2023-06-30T09:38:29.638Z,15.70
2023-06-30T09:41:01.152Z,17.80
2023-06-30T09:43:31.974Z,17.20
2023-06-30T09:46:04.500Z,20.30
2023-06-30T09:48:39.701Z,18.50
2023-06-30T09:51:12.128Z,18.10
2023-06-30T09:53:46.111Z,17.00
2023-06-30T09:56:23.024Z,20.30
2023-06-30T09:58:59.173Z,16.00
2023-06-30T10:01:31.199Z,13.50
2023-06-30T10:04:02.641Z,13.30
2023-06-30T10:06:34.603Z,13.10
2023-06-30T10:09:06.692Z,14.70
2023-06-30T10:11:39.645Z,13.90
2023-06-30T10:14:13.183Z,13.00
2023-06-30T10:16:44.645Z,15.40
2023-06-30T10:19:15.901Z,13.70
2023-06-30T10:21:48.361Z,15.40
2023-06-30T10:24:22.790Z,15.80
2023-06-30T10:26:55.249Z,16.80
2023-06-30T10:29:27.023Z,14.50
2023-06-30T10:31:58.650Z,11.30
2023-06-30T10:34:31.190Z,15.20
2023-06-30T10:37:03.248Z,12.60
2023-06-30T10:39:35.245Z,13.30
2023-06-30T10:42:09.104Z,14.70
2023-06-30T10:44:48.184Z,15.80
2023-06-30T10:47:24.664Z,17.50
2023-06-30T10:49:56.843Z,14.60
2023-06-30T10:52:32.123Z,14.20
2023-06-30T10:55:09.792Z,12.10
2023-06-30T10:57:41.472Z,12.80
2023-06-30T11:00:15.839Z,16.70
2023-06-30T11:02:52.059Z,19.30
2023-06-30T11:05:25.424Z,11.00
2023-06-30T11:08:05.888Z,11.00
2023-06-30T11:10:46.187Z,11.20
2023-06-30T11:13:17.351Z,13.00
2023-06-30T11:15:54.088Z,10.70
2023-06-30T11:18:26.582Z,14.30
2023-06-30T11:21:02.672Z,11.10
2023-06-30T11:23:37.617Z,12.40
2023-06-30T11:26:17.469Z,14.50
2023-06-30T11:28:50.475Z,10.50
2023-06-30T11:31:22.285Z,11.30
2023-06-30T11:33:53.486Z,10.90
2023-06-30T11:36:24.790Z,11.70
2023-06-30T11:38:55.735Z,11.80
2023-06-30T11:41:27.104Z,10.30
2023-06-30T11:43:58.191Z,10.60
2023-06-30T11:46:37.102Z,10.40
2023-06-30T11:49:08.871Z,9.60
2023-06-30T11:51:40.144Z,10.50
2023-06-30T11:54:11.519Z,9.70
2023-06-30T11:56:43.782Z,10.20
2023-06-30T11:59:14.949Z,9.80
2023-06-30T12:01:46.559Z,9.50
2023-06-30T12:04:37.747Z,8.80
2023-06-30T12:07:09.600Z,8.70
2023-06-30T12:09:43.064Z,9.90
2023-06-30T12:12:27.636Z,10.50
2023-06-30T12:14:59.233Z,8.80
2023-06-30T12:17:31.796Z,9.10
2023-06-30T12:20:03.087Z,9.40
2023-06-30T12:22:36.714Z,9.50
2023-06-30T12:25:09.403Z,8.90
2023-06-30T12:27:44.872Z,9.80
2023-06-30T12:30:20.502Z,9.00
2023-06-30T12:32:59.594Z,8.00
2023-06-30T12:35:39.174Z,9.70
2023-06-30T12:38:13.922Z,7.70
2023-06-30T12:40:45.797Z,7.00
2023-06-30T12:43:18.993Z,7.90
2023-06-30T12:45:50.301Z,8.90
2023-06-30T12:48:21.933Z,6.70
2023-06-30T12:50:54.338Z,9.60
2023-06-30T12:53:26.075Z,8.30
2023-06-30T12:55:57.468Z,9.70
2023-06-30T12:58:28.858Z,13.90
2023-06-30T13:01:02.254Z,10.70
2023-06-30T13:03:36.039Z,10.40
2023-06-30T13:06:07.626Z,8.20
2023-06-30T13:08:38.891Z,15.20
2023-06-30T13:11:09.987Z,11.20
2023-06-30T13:13:41.355Z,10.60
2023-06-30T13:16:13.120Z,8.80
2023-06-30T13:18:44.596Z,10.30
2023-06-30T13:21:16.000Z,19.30
2023-06-30T13:23:47.676Z,18.90
2023-06-30T13:26:19.081Z,10.50
2023-06-30T13:28:50.382Z,20.80
2023-06-30T13:31:21.974Z,10.20
2023-06-30T13:33:53.039Z,12.40
2023-06-30T13:36:26.013Z,11.60
2023-06-30T13:38:59.516Z,10.80
2023-06-30T13:41:30.769Z,12.20
2023-06-30T13:44:02.043Z,10.00
2023-06-30T13:46:33.507Z,11.60
2023-06-30T13:49:04.506Z,11.20
2023-06-30T13:51:35.589Z,13.90
2023-06-30T13:54:06.721Z,12.20
2023-06-30T13:56:38.098Z,9.60
2023-06-30T13:59:09.200Z,10.40
2023-06-30T14:01:42.214Z,8.80
2023-06-30T14:04:13.828Z,9.50
2023-06-30T14:06:45.926Z,9.60
2023-06-30T14:09:18.043Z,11.40
2023-06-30T14:11:49.478Z,8.70
2023-06-30T14:14:20.736Z,9.30
2023-06-30T14:16:51.796Z,7.70
2023-06-30T14:19:23.173Z,10.00
2023-06-30T14:21:54.561Z,8.30
2023-06-30T14:24:25.771Z,8.00
2023-06-30T14:26:57.312Z,10.70
2023-06-30T14:29:28.536Z,8.10
2023-06-30T14:31:59.926Z,7.90
2023-06-30T14:34:31.588Z,9.20
2023-06-30T14:37:03.666Z,12.50
2023-06-30T14:39:34.876Z,12.50
2023-06-30T14:42:09.194Z,9.40
2023-06-30T14:44:47.283Z,9.30
2023-06-30T14:47:18.995Z,10.60
2023-06-30T14:49:50.681Z,8.20
2023-06-30T14:52:21.892Z,11.00
2023-06-30T14:54:53.108Z,9.90
2023-06-30T14:57:24.449Z,13.20
2023-06-30T14:59:56.088Z,12.70
2023-06-30T15:02:27.478Z,9.80
2023-06-30T15:04:58.767Z,11.60
2023-06-30T15:07:30.456Z,10.70
2023-06-30T15:10:02.009Z,9.50
2023-06-30T15:12:33.901Z,10.60
2023-06-30T15:15:06.328Z,9.30
2023-06-30T15:17:37.719Z,11.10
2023-06-30T15:20:10.780Z,10.50
2023-06-30T15:22:42.220Z,8.90
2023-06-30T15:25:26.275Z,12.40
2023-06-30T15:27:58.003Z,9.10
2023-06-30T15:30:30.707Z,10.20
2023-06-30T15:33:04.960Z,10.70
2023-06-30T15:35:35.970Z,11.10
2023-06-30T15:38:07.751Z,9.40
2023-06-30T15:40:40.326Z,9.80
2023-06-30T15:43:11.648Z,10.90
2023-06-30T15:45:43.376Z,10.70
2023-06-30T15:48:17.412Z,9.00
2023-06-30T15:50:48.572Z,13.40
2023-06-30T15:53:19.674Z,12.40
2023-06-30T15:55:50.718Z,11.40
2023-06-30T15:58:23.171Z,11.40
2023-06-30T16:00:54.467Z,11.40
2023-06-30T16:03:25.677Z,11.60
2023-06-30T16:05:57.100Z,13.00
2023-06-30T16:08:28.075Z,10.60
2023-06-30T16:10:59.152Z,13.10
2023-06-30T16:13:30.470Z,12.00
2023-06-30T16:16:01.387Z,16.10
2023-06-30T16:18:32.964Z,9.50
2023-06-30T16:21:04.312Z,9.20
2023-06-30T16:23:35.412Z,8.30
2023-06-30T16:26:08.486Z,10.40
2023-06-30T16:28:39.915Z,11.00
2023-06-30T16:31:11.177Z,14.40
2023-06-30T16:33:42.822Z,19.00
2023-06-30T16:36:14.376Z,20.70
2023-06-30T16:38:46.030Z,19.40
2023-06-30T16:41:17.249Z,22.00
2023-06-30T16:43:48.620Z,16.50
2023-06-30T16:46:19.801Z,20.80
2023-06-30T16:48:51.010Z,16.10
2023-06-30T16:51:22.303Z,17.00
2023-06-30T16:53:53.441Z,11.70
2023-06-30T16:56:24.904Z,10.00
2023-06-30T16:58:56.480Z,10.00
2023-06-30T17:01:27.820Z,10.70
2023-06-30T17:03:59.182Z,8.00
2023-06-30T17:06:30.840Z,9.80
2023-06-30T17:09:02.171Z,8.90
2023-06-30T17:11:33.775Z,8.10
2023-06-30T17:14:05.072Z,7.60
2023-06-30T17:16:36.543Z,6.00
2023-06-30T17:19:07.781Z,7.80
2023-06-30T17:21:40.198Z,8.90
2023-06-30T17:24:13.482Z,11.80
2023-06-30T17:26:44.670Z,9.20
2023-06-30T17:29:16.130Z,9.10
2023-06-30T17:31:47.214Z,9.40
2023-06-30T17:34:19.648Z,8.60
2023-06-30T17:37:00.325Z,8.60
2023-06-30T17:39:32.001Z,7.20
2023-06-30T17:42:03.528Z,11.20
2023-06-30T17:44:34.663Z,8.70
2023-06-30T17:47:06.329Z,10.60
2023-06-30T17:49:38.504Z,9.30
2023-06-30T17:52:10.952Z,7.60
2023-06-30T17:57:29.320Z,8.70
2023-06-30T18:00:00.805Z,9.10
2023-06-30T18:02:34.443Z,7.90
2023-06-30T18:05:06.187Z,7.60
2023-06-30T18:07:38.051Z,8.80
2023-06-30T18:10:14.529Z,9.30
2023-06-30T18:12:46.385Z,8.90
2023-06-30T18:15:17.526Z,7.60
2023-06-30T18:17:49.420Z,8.40
2023-06-30T18:20:21.870Z,6.80
2023-06-30T18:22:53.152Z,7.00
2023-06-30T18:25:24.445Z,7.70
2023-06-30T18:27:55.630Z,7.50
2023-06-30T18:30:26.926Z,8.20
2023-06-30T18:32:58.490Z,7.90
2023-06-30T18:35:29.706Z,7.00
2023-06-30T18:38:01.032Z,8.70
2023-06-30T18:40:32.131Z,9.50
2023-06-30T18:43:03.253Z,9.50
2023-06-30T18:45:36.632Z,9.80
2023-06-30T18:48:08.446Z,9.30
2023-06-30T18:50:39.711Z,8.50
2023-06-30T18:53:11.687Z,9.40
2023-06-30T18:55:43.704Z,7.60
2023-06-30T18:58:15.109Z,6.60
2023-06-30T19:00:46.188Z,6.50
2023-06-30T19:03:18.318Z,7.90
2023-06-30T19:05:49.880Z,7.60
2023-06-30T19:08:21.226Z,7.50
2023-06-30T19:10:52.750Z,7.30
2023-06-30T19:13:24.638Z,9.20
2023-06-30T19:15:56.064Z,8.60
2023-06-30T19:18:27.252Z,9.30
2023-06-30T19:20:58.719Z,11.00
2023-06-30T19:23:29.983Z,8.30
2023-06-30T19:26:01.051Z,6.60
2023-06-30T19:28:32.285Z,6.60
2023-06-30T19:31:03.960Z,6.60
2023-06-30T19:33:37.434Z,6.70
2023-06-30T19:36:09.115Z,6.00
2023-06-30T19:38:41.243Z,7.40
2023-06-30T19:41:13.647Z,8.10
2023-06-30T19:43:45.290Z,6.30
2023-06-30T19:46:16.285Z,7.60
2023-06-30T19:48:47.843Z,7.90
2023-06-30T19:51:19.119Z,6.80
2023-06-30T19:53:50.489Z,6.90
2023-06-30T19:56:21.721Z,6.70
2023-06-30T19:58:52.849Z,6.40
2023-06-30T20:01:26.923Z,6.40
2023-06-30T20:03:58.780Z,6.60
2023-06-30T20:06:30.284Z,6.00
2023-06-30T20:09:01.653Z,8.40
2023-06-30T20:11:33.073Z,8.30
2023-06-30T20:14:04.239Z,7.20
2023-06-30T20:16:35.551Z,7.60
2023-06-30T20:19:06.924Z,6.90
2023-06-30T20:21:37.958Z,7.20
2023-06-30T20:24:09.605Z,7.40
2023-06-30T20:26:40.760Z,8.30
2023-06-30T20:29:12.864Z,7.00
2023-06-30T20:31:44.350Z,9.90
2023-06-30T20:34:16.271Z,8.10
2023-06-30T20:36:49.215Z,8.20
2023-06-30T20:39:20.311Z,6.90
2023-06-30T20:41:51.627Z,7.10
2023-06-30T20:44:23.100Z,6.70
2023-06-30T20:46:54.933Z,7.00
2023-06-30T20:49:26.255Z,6.10
2023-06-30T20:51:57.872Z,7.70
2023-06-30T20:54:29.369Z,6.40
2023-06-30T20:57:02.026Z,6.20
2023-06-30T20:59:34.224Z,6.80
2023-06-30T21:02:05.935Z,7.50
2023-06-30T21:04:37.420Z,7.50
2023-06-30T21:07:10.278Z,7.60
2023-06-30T21:09:41.776Z,7.10
2023-06-30T21:12:13.773Z,6.60
2023-06-30T21:14:44.979Z,7.70
2023-06-30T21:17:16.265Z,7.00
2023-06-30T21:19:48.255Z,7.30
2023-06-30T21:22:19.422Z,8.30
2023-06-30T21:24:50.779Z,7.20
2023-06-30T21:27:22.133Z,7.80
2023-06-30T21:29:53.239Z,7.00
2023-06-30T21:32:24.465Z,6.60
2023-06-30T21:34:55.733Z,8.70
2023-06-30T21:37:27.338Z,7.70
2023-06-30T21:40:02.531Z,9.60
2023-06-30T21:42:33.663Z,7.60
2023-06-30T21:45:05.165Z,7.70
2023-06-30T21:47:36.332Z,7.70
2023-06-30T21:50:09.027Z,7.60
2023-06-30T21:52:40.023Z,8.70
2023-06-30T21:55:12.467Z,7.50
2023-06-30T21:57:43.592Z,7.20
2023-06-30T22:00:16.324Z,6.80
2023-06-30T22:02:48.076Z,7.00
2023-06-30T22:05:19.662Z,6.20
2023-06-30T22:07:51.420Z,9.00
2023-06-30T22:10:22.833Z,7.90
2023-06-30T22:12:54.071Z,7.50
2023-06-30T22:15:25.614Z,7.90
2023-06-30T22:17:57.465Z,7.10
2023-06-30T22:20:28.786Z,8.40
2023-06-30T22:23:00.122Z,7.10
2023-06-30T22:25:31.439Z,7.50
2023-06-30T22:28:02.721Z,7.40
2023-06-30T22:30:34.724Z,7.60
2023-06-30T22:33:06.805Z,7.00
2023-06-30T22:35:38.780Z,7.60
2023-06-30T22:38:10.613Z,6.80
2023-06-30T22:40:41.856Z,7.90
2023-06-30T22:43:13.134Z,8.50
2023-06-30T22:45:45.075Z,7.80
2023-06-30T22:48:16.564Z,7.40
2023-06-30T22:50:48.361Z,7.20
2023-06-30T22:53:20.210Z,7.20
2023-06-30T22:55:51.628Z,8.40
2023-06-30T22:58:22.972Z,8.20
2023-06-30T23:00:54.647Z,7.80
2023-06-30T23:03:26.337Z,8.10
2023-06-30T23:05:57.501Z,8.40
2023-06-30T23:08:28.660Z,7.80
2023-06-30T23:11:00.004Z,7.80
2023-06-30T23:13:32.031Z,8.10
2023-06-30T23:16:03.424Z,9.40
2023-06-30T23:18:38.824Z,7.60
2023-06-30T23:21:12.129Z,6.80
2023-06-30T23:23:43.864Z,7.40
2023-06-30T23:26:16.873Z,7.10
2023-06-30T23:28:50.675Z,7.90
2023-06-30T23:31:22.967Z,8.40
2023-06-30T23:33:54.419Z,7.80
2023-06-30T23:36:26.095Z,7.80
2023-06-30T23:38:57.418Z,8.00
2023-06-30T23:41:30.516Z,8.40
2023-06-30T23:44:02.201Z,7.20
2023-06-30T23:46:33.445Z,7.20
2023-06-30T23:49:05.136Z,7.30
2023-06-30T23:51:36.374Z,6.90
2023-06-30T23:54:07.695Z,7.20
2023-06-30T23:56:38.847Z,7.50
2023-06-30T23:59:10.559Z,7.90
